Ustick, Illinois
Current Conditions -  °F | °C
As of 1:15 PM on Saturday 25 Oct 2014 (Local Time) from KSQI Reporting Station
Clear Clear  
Wind Chill: 73°   Ceiling: Unl
Heat Index: 73°   Visibility: 10mi
Dew Point: 37°   Wind: 14mph
Humidity: 27%   Direction: 330°NNW
Pressure: 30"   Gusts: 17mph
Location:  41.8285°N, 89.9656°W
Report Text: KSQI 251815Z AUTO 33012G15KT 10SM CLR 23/03 A3000 RMK AO1
Loading
Personal Weather Stations






























Interactive Weather Map New forecast layout! Learn more

10-Day Weather Forecast

Advertisements
Track Severe Weather on mobile